Time;durP1;ratioP1;P1;durP2;ratioP2;P2;SDS_P1;SDS_P2;PMS_P1;PMS_P2;Temp;Humidity;BMP_temperature;BMP_pressure;BME280_temperature;BME280_humidity;BME280_pressure;Samples;Min_cycle;Max_cycle;Signal;HPM_P1;HPM_P2
2021/09/13 00:00:58;;;;;;;5.38;3.20;;;;;;;12.22;96.47;102101.81;6176098;23;20486;-77
2021/09/13 00:03:23;;;;;;;4.78;3.30;;;;;;;12.19;96.87;102096.44;6181552;23;20073;-76
2021/09/13 00:05:48;;;;;;;12.27;3.78;;;;;;;12.14;96.76;102105.13;6181853;23;20417;-75
2021/09/13 00:08:14;;;;;;;7.28;3.83;;;;;;;12.12;96.91;102100.66;6180648;23;20412;-76
2021/09/13 00:10:42;;;;;;;5.80;3.20;;;;;;;12.09;97.31;102096.16;6178581;23;20374;-75
2021/09/13 00:13:08;;;;;;;9.57;3.80;;;;;;;12.08;97.26;102098.78;6181522;23;20011;-75
2021/09/13 00:15:33;;;;;;;9.07;4.20;;;;;;;12.08;97.51;102094.38;6182028;23;20374;-76
2021/09/13 00:17:59;;;;;;;4.68;3.38;;;;;;;12.06;97.37;102106.63;6181855;23;20337;-77
2021/09/13 00:20:24;;;;;;;7.13;2.67;;;;;;;12.03;97.63;102098.63;6180983;23;20012;-77
2021/09/13 00:22:49;;;;;;;8.63;3.80;;;;;;;12.01;97.92;102097.69;6181976;23;20009;-76
2021/09/13 00:25:15;;;;;;;14.13;4.18;;;;;;;12.01;97.96;102097.69;6180724;23;20344;-76
2021/09/13 00:27:40;;;;;;;6.18;3.55;;;;;;;11.98;98.00;102097.59;6182578;23;20005;-76
2021/09/13 00:30:06;;;;;;;7.82;3.85;;;;;;;11.98;97.71;102100.22;6181029;23;20352;-77
2021/09/13 00:32:32;;;;;;;12.80;3.83;;;;;;;11.94;97.96;102101.88;6181864;23;20055;-75
2021/09/13 00:34:57;;;;;;;10.43;3.95;;;;;;;11.92;97.98;102098.28;6182985;23;20412;-76
2021/09/13 00:37:23;;;;;;;9.63;4.10;;;;;;;11.91;98.15;102106.09;6180864;23;20009;-76
2021/09/13 00:39:48;;;;;;;8.43;3.67;;;;;;;11.87;98.00;102098.94;6183238;23;20005;-75
2021/09/13 00:42:13;;;;;;;10.38;3.70;;;;;;;11.85;98.14;102091.00;6181511;23;20001;-76
2021/09/13 00:44:39;;;;;;;8.27;4.15;;;;;;;11.82;98.04;102091.78;6182073;23;20009;-76
2021/09/13 00:47:05;;;;;;;6.55;3.60;;;;;;;11.81;98.25;102091.75;6184300;23;20001;-75
2021/09/13 00:49:30;;;;;;;10.82;3.28;;;;;;;11.79;98.24;102091.69;6184298;23;20452;-76
2021/09/13 00:51:56;;;;;;;8.70;3.28;;;;;;;11.77;98.36;102085.50;6184733;23;20076;-76
2021/09/13 00:54:21;;;;;;;5.72;3.08;;;;;;;11.75;98.33;102089.81;6184522;23;20387;-76
2021/09/13 00:56:47;;;;;;;6.97;3.55;;;;;;;11.75;98.47;102094.19;6184142;23;20076;-76
2021/09/13 00:59:14;;;;;;;10.60;3.17;;;;;;;11.72;98.53;102095.00;6184999;23;20009;-75
2021/09/13 01:01:39;;;;;;;10.25;3.20;;;;;;;11.73;98.49;102091.50;6178194;23;20068;-77
2021/09/13 01:04:05;;;;;;;7.72;3.38;;;;;;;11.75;98.23;102095.09;6185106;23;20424;-76
2021/09/13 01:06:30;;;;;;;9.57;3.35;;;;;;;11.77;98.70;102088.13;6182799;23;20409;-75
2021/09/13 01:08:56;;;;;;;10.57;3.70;;;;;;;11.80;99.11;102090.88;6183294;23;20088;-77
2021/09/13 01:11:22;;;;;;;6.45;3.08;;;;;;;11.82;99.14;102097.06;6182826;23;20371;-78
2021/09/13 01:13:48;;;;;;;5.80;3.03;;;;;;;11.82;99.10;102085.63;6185273;23;20008;-76
2021/09/13 01:16:14;;;;;;;7.57;3.08;;;;;;;11.83;98.74;102084.78;6184236;23;20032;-76
2021/09/13 01:18:39;;;;;;;5.90;3.15;;;;;;;11.79;98.95;102081.16;6185343;23;20413;-77
2021/09/13 01:21:05;;;;;;;8.52;3.28;;;;;;;11.77;98.89;102081.94;6183500;23;20464;-77
2021/09/13 01:23:35;;;;;;;17.15;3.20;;;;;;;11.75;98.63;102079.25;6183936;23;20020;-74
2021/09/13 01:26:02;;;;;;;8.32;2.90;;;;;;;11.75;98.35;102084.53;6184491;23;20420;-79
2021/09/13 01:28:28;;;;;;;5.65;3.03;;;;;;;11.76;98.43;102082.78;6185449;23;20009;-76
2021/09/13 01:30:54;;;;;;;11.05;3.47;;;;;;;11.75;98.66;102089.81;6183006;23;20008;-77
2021/09/13 01:33:21;;;;;;;5.38;3.17;;;;;;;11.73;98.91;102091.50;6156790;23;20071;-77
2021/09/13 01:35:47;;;;;;;6.68;2.80;;;;;;;11.72;98.95;102087.09;6183804;23;20013;-76
2021/09/13 01:38:14;;;;;;;6.68;2.78;;;;;;;11.71;99.07;102087.94;6183789;23;20063;-75
2021/09/13 01:40:40;;;;;;;8.60;3.10;;;;;;;11.71;98.85;102082.66;6183332;23;20465;-77
2021/09/13 01:43:06;;;;;;;10.02;3.15;;;;;;;11.73;98.65;102083.56;6183548;23;20005;-75
2021/09/13 01:45:31;;;;;;;5.82;3.03;;;;;;;11.76;98.65;102086.34;6184205;23;20053;-76
2021/09/13 01:47:57;;;;;;;5.07;3.05;;;;;;;11.78;98.62;102081.09;6182905;23;20012;-78
2021/09/13 01:50:23;;;;;;;8.52;3.42;;;;;;;11.77;98.73;102072.31;6183396;23;20004;-76
2021/09/13 01:52:48;;;;;;;6.85;3.33;;;;;;;11.78;98.98;102074.06;6183861;23;20428;-76
2021/09/13 01:55:14;;;;;;;9.68;3.78;;;;;;;11.82;99.27;102073.31;6182858;23;20008;-76
2021/09/13 01:57:40;;;;;;;7.70;4.13;;;;;;;11.89;99.28;102070.91;6182261;23;20084;-76
2021/09/13 02:00:07;;;;;;;10.70;3.67;;;;;;;11.96;99.72;102068.53;6179546;23;20385;-76
2021/09/13 02:02:33;;;;;;;5.53;3.60;;;;;;;12.03;99.96;102066.97;6185180;23;20011;-77
2021/09/13 02:04:58;;;;;;;8.43;4.05;;;;;;;12.08;100.00;102061.81;6184279;23;20079;-78
2021/09/13 02:07:24;;;;;;;9.40;4.40;;;;;;;12.12;100.00;102061.94;6184647;23;20009;-77
2021/09/13 02:09:52;;;;;;;7.57;3.47;;;;;;;12.17;99.94;102067.38;6184579;23;20407;-77
2021/09/13 02:12:19;;;;;;;9.65;3.88;;;;;;;12.19;99.55;102065.66;6181845;23;20004;-77
2021/09/13 02:14:45;;;;;;;9.95;3.97;;;;;;;12.20;99.73;102064.81;6184589;23;20083;-75
2021/09/13 02:17:10;;;;;;;10.77;3.63;;;;;;;12.20;99.45;102061.31;6184607;23;20021;-76
2021/09/13 02:19:36;;;;;;;5.05;3.60;;;;;;;12.23;99.48;102064.03;6182150;23;20013;-76
2021/09/13 02:22:01;;;;;;;8.05;3.90;;;;;;;12.24;99.29;102064.06;6183031;23;20012;-76
2021/09/13 02:24:26;;;;;;;4.97;3.53;;;;;;;12.25;99.39;102062.31;6180984;23;20017;-76
2021/09/13 02:26:52;;;;;;;7.50;4.32;;;;;;;12.24;99.34;102061.44;6183258;23;20067;-75
2021/09/13 02:29:17;;;;;;;7.88;3.75;;;;;;;12.26;99.18;102058.81;6183905;23;20109;-76
2021/09/13 02:31:43;;;;;;;10.48;4.03;;;;;;;12.25;99.42;102059.66;6181778;23;20358;-78
2021/09/13 02:34:08;;;;;;;6.28;3.22;;;;;;;12.22;99.41;102059.59;6184236;23;19997;-77
2021/09/13 02:36:33;;;;;;;10.45;4.30;;;;;;;12.26;99.13;102056.19;6182289;23;20519;-76
2021/09/13 02:38:59;;;;;;;7.55;3.75;;;;;;;12.30;99.38;102063.34;6183888;23;20056;-75
2021/09/13 02:41:25;;;;;;;11.15;4.25;;;;;;;12.35;99.48;102060.84;6182852;23;20001;-77
2021/09/13 02:43:50;;;;;;;8.45;4.38;;;;;;;12.38;99.58;102061.81;6184349;23;20013;-77
2021/09/13 02:46:18;;;;;;;13.00;5.03;;;;;;;12.42;99.42;102060.19;6183944;23;20015;-76
2021/09/13 02:48:44;;;;;;;8.05;4.80;;;;;;;12.45;99.51;102061.16;6181894;23;20005;-75
2021/09/13 02:51:09;;;;;;;13.27;5.72;;;;;;;12.47;99.71;102056.81;6183504;23;20015;-76
2021/09/13 02:53:35;;;;;;;16.20;5.47;;;;;;;12.49;99.92;102054.22;6183373;23;20096;-76
2021/09/13 02:56:01;;;;;;;14.23;5.07;;;;;;;12.52;100.00;102062.25;6182588;23;20032;-76
2021/09/13 02:58:26;;;;;;;13.77;5.85;;;;;;;12.57;100.00;102072.91;6183646;23;20009;-76
2021/09/13 03:00:52;;;;;;;11.88;5.18;;;;;;;12.62;100.00;102064.25;6178109;23;20425;-76
2021/09/13 03:03:17;;;;;;;9.93;5.50;;;;;;;12.67;100.00;102072.34;6183493;23;20378;-76
2021/09/13 03:05:43;;;;;;;9.73;6.75;;;;;;;12.74;100.00;102063.72;6182219;23;20016;-77
2021/09/13 03:08:09;;;;;;;13.85;6.65;;;;;;;12.79;100.00;102069.09;6182316;23;20011;-77
2021/09/13 03:10:34;;;;;;;15.63;6.75;;;;;;;12.85;100.00;102073.69;6181754;23;20017;-76
2021/09/13 03:13:00;;;;;;;9.25;6.80;;;;;;;12.90;100.00;102064.13;6183397;23;20001;-77
2021/09/13 03:15:25;;;;;;;11.50;6.05;;;;;;;12.95;100.00;102070.41;6181423;23;20008;-76
2021/09/13 03:17:51;;;;;;;15.57;7.03;;;;;;;12.97;100.00;102064.31;6184007;23;20455;-78
2021/09/13 03:20:16;;;;;;;15.57;7.20;;;;;;;13.01;100.00;102057.38;6182683;23;20087;-77
2021/09/13 03:22:41;;;;;;;19.30;7.63;;;;;;;13.04;100.00;102062.75;6183531;23;20074;-76
2021/09/13 03:25:08;;;;;;;13.60;6.88;;;;;;;13.13;100.00;102060.34;6180702;23;20013;-77
2021/09/13 03:27:33;;;;;;;15.10;7.88;;;;;;;13.19;100.00;102058.72;6183716;23;20020;-77
2021/09/13 03:29:59;;;;;;;11.35;8.15;;;;;;;13.20;100.00;102058.75;6183613;23;20005;-76
2021/09/13 03:32:24;;;;;;;12.45;7.82;;;;;;;13.23;99.66;102060.59;6182043;23;20447;-77
2021/09/13 03:34:50;;;;;;;13.18;7.82;;;;;;;13.26;99.40;102060.66;6182524;23;20083;-77
2021/09/13 03:37:15;;;;;;;13.60;7.85;;;;;;;13.30;99.23;102052.81;6183133;23;20083;-79
2021/09/13 03:39:41;;;;;;;15.45;7.38;;;;;;;13.33;98.95;102054.66;6181237;23;20005;-77
2021/09/13 03:42:06;;;;;;;12.93;7.82;;;;;;;13.36;99.02;102054.78;6183494;23;20005;-76
2021/09/13 03:44:32;;;;;;;13.55;7.55;;;;;;;13.37;99.47;102051.25;6182197;23;20009;-77
2021/09/13 03:46:58;;;;;;;13.32;7.30;;;;;;;13.40;99.07;102054.00;6183099;23;20389;-76
2021/09/13 03:49:23;;;;;;;13.15;6.60;;;;;;;13.37;98.62;102048.63;6182627;23;20013;-76
2021/09/13 03:51:49;;;;;;;9.93;6.47;;;;;;;13.33;98.06;102044.06;6183813;23;20005;-76
2021/09/13 03:54:14;;;;;;;10.65;6.68;;;;;;;13.28;98.07;102040.41;6182177;23;20445;-77
2021/09/13 03:56:40;;;;;;;13.43;6.20;;;;;;;13.24;97.85;102051.78;6179792;23;20020;-76
2021/09/13 03:59:06;;;;;;;14.70;7.18;;;;;;;13.19;98.08;102048.16;6183839;23;20417;-76
2021/09/13 04:01:32;;;;;;;13.95;7.07;;;;;;;13.18;98.30;102049.00;6177266;23;20333;-77
2021/09/13 04:04:00;;;;;;;12.10;6.22;;;;;;;13.16;98.57;102041.91;6183713;23;20059;-75
2021/09/13 04:06:38;;;;;;;15.13;7.43;;;;;;;13.18;99.14;102046.34;6180566;23;20321;-77
2021/09/13 04:11:54;;;;;;;18.33;7.90;;;;;;;13.26;99.80;102052.72;6191134;23;20024;-78
2021/09/13 04:14:24;;;;;;;13.95;6.65;;;;;;;13.32;99.88;102050.22;6181405;23;20001;-76
2021/09/13 04:16:49;;;;;;;12.00;7.38;;;;;;;13.37;99.93;102048.63;6180699;23;20009;-78
2021/09/13 04:19:15;;;;;;;16.33;7.35;;;;;;;13.40;99.83;102054.00;6183419;23;20076;-76
2021/09/13 04:21:41;;;;;;;13.23;6.53;;;;;;;13.46;99.71;102046.19;6180078;23;20088;-77
2021/09/13 04:24:06;;;;;;;13.52;6.28;;;;;;;13.52;99.51;102055.13;6183522;23;20013;-75
2021/09/13 04:26:31;;;;;;;11.73;6.45;;;;;;;13.58;99.47;102055.28;6181057;23;20000;-77
2021/09/13 04:28:58;;;;;;;15.25;6.28;;;;;;;13.63;99.07;102062.47;6183506;23;20005;-76
2021/09/13 04:31:23;;;;;;;16.60;6.85;;;;;;;13.66;98.94;102057.25;6181030;23;20120;-77
2021/09/13 04:33:50;;;;;;;14.75;6.55;;;;;;;13.70;98.50;102047.66;6183025;23;20021;-77
2021/09/13 04:36:16;;;;;;;13.98;7.20;;;;;;;13.73;98.65;102054.75;6181709;23;20112;-76
2021/09/13 04:38:41;;;;;;;8.38;5.93;;;;;;;13.74;98.67;102057.44;6181631;23;20033;-77
2021/09/13 04:41:07;;;;;;;12.88;6.40;;;;;;;13.76;98.69;102062.75;6182129;23;20063;-77
2021/09/13 04:43:32;;;;;;;10.43;6.00;;;;;;;13.77;98.56;102062.78;6182472;23;20012;-77
2021/09/13 04:45:58;;;;;;;10.13;6.28;;;;;;;13.79;98.90;102068.13;6181248;23;20017;-76
2021/09/13 04:48:24;;;;;;;8.95;5.97;;;;;;;13.79;99.38;102058.41;6181605;23;20084;-76
2021/09/13 04:50:52;;;;;;;9.82;5.80;;;;;;;13.80;99.71;102065.50;6182331;23;20001;-77
2021/09/13 04:53:19;;;;;;;10.07;5.72;;;;;;;13.81;99.79;102056.72;6181030;23;20075;-77
2021/09/13 04:55:44;;;;;;;7.75;5.43;;;;;;;13.81;99.31;102062.00;6156124;23;20005;-77
2021/09/13 04:58:09;;;;;;;8.45;5.65;;;;;;;13.83;99.58;102057.63;6181322;23;20013;-77
2021/09/13 05:00:35;;;;;;;9.75;5.25;;;;;;;13.87;99.55;102060.34;6174822;23;20532;-76
2021/09/13 05:03:00;;;;;;;9.98;5.80;;;;;;;13.88;99.31;102063.03;6181903;23;20052;-77
2021/09/13 05:05:26;;;;;;;10.60;6.32;;;;;;;13.88;99.23;102063.03;6181465;23;20040;-75
2021/09/13 05:07:51;;;;;;;8.45;5.00;;;;;;;13.90;99.42;102063.06;6182023;23;20012;-75
2021/09/13 05:10:17;;;;;;;8.57;5.07;;;;;;;13.92;99.45;102061.38;6182840;23;20447;-76
2021/09/13 05:12:42;;;;;;;13.40;5.95;;;;;;;13.93;100.00;102060.47;6181134;23;20009;-75
2021/09/13 05:15:08;;;;;;;9.65;5.40;;;;;;;13.93;100.00;102066.69;6182414;23;20063;-76
2021/09/13 05:17:33;;;;;;;10.80;6.07;;;;;;;13.95;99.74;102064.06;6183223;23;20015;-76
2021/09/13 05:19:59;;;;;;;13.70;5.72;;;;;;;13.97;99.70;102057.94;6182249;23;20372;-76
2021/09/13 05:22:24;;;;;;;13.77;6.35;;;;;;;14.00;99.60;102057.13;6180914;23;20013;-76
2021/09/13 05:24:50;;;;;;;13.48;5.68;;;;;;;14.02;99.85;102065.97;6183218;23;20027;-76
2021/09/13 05:27:15;;;;;;;16.63;6.32;;;;;;;14.05;99.78;102063.38;6130727;23;20040;-76
2021/09/13 05:29:40;;;;;;;10.15;5.28;;;;;;;14.06;99.85;102065.19;6183400;23;20001;-75
2021/09/13 05:32:06;;;;;;;12.15;5.95;;;;;;;14.09;99.88;102081.13;6182252;23;20021;-77
2021/09/13 05:34:32;;;;;;;13.75;6.55;;;;;;;14.13;100.00;102083.00;6183261;23;20333;-76
2021/09/13 05:36:57;;;;;;;14.45;6.05;;;;;;;14.16;99.86;102080.41;6179810;23;20009;-76
2021/09/13 05:39:23;;;;;;;13.68;5.82;;;;;;;14.23;100.00;102080.53;6183156;23;20001;-76
2021/09/13 05:41:49;;;;;;;17.13;6.15;;;;;;;14.27;99.96;102082.38;6178912;23;20000;-75
2021/09/13 05:44:15;;;;;;;10.15;5.82;;;;;;;14.31;99.94;102073.66;6179802;23;20013;-75
2021/09/13 05:46:40;;;;;;;9.45;5.75;;;;;;;14.36;99.26;102077.28;6183780;23;20013;-76
2021/09/13 05:49:10;;;;;;;14.63;5.95;;;;;;;14.42;99.01;102073.88;6184789;23;20424;-78
2021/09/13 05:51:42;;;;;;;10.65;6.35;;;;;;;14.47;98.67;102073.13;6183088;23;20024;-77
2021/09/13 05:54:08;;;;;;;10.50;5.95;;;;;;;14.55;98.89;102072.38;6185150;23;20005;-79
2021/09/13 05:56:34;;;;;;;10.13;6.07;;;;;;;14.60;98.20;102071.59;6184096;23;20005;-78
2021/09/13 05:58:59;;;;;;;9.73;6.20;;;;;;;14.68;97.82;102074.44;6183677;23;20067;-78
2021/09/13 06:01:25;;;;;;;14.23;5.60;;;;;;;14.75;97.17;102071.03;6176540;23;20001;-75
2021/09/13 06:03:50;;;;;;;7.95;5.50;;;;;;;14.83;96.71;102068.53;6179856;23;20405;-76
2021/09/13 06:06:16;;;;;;;12.93;5.75;;;;;;;14.96;96.54;102064.34;6182684;23;20725;-77
2021/09/13 06:08:41;;;;;;;16.48;6.00;;;;;;;15.11;95.98;102061.97;6180989;23;20015;-75
2021/09/13 06:11:07;;;;;;;10.88;5.10;;;;;;;15.23;95.03;102069.22;6184613;23;20012;-76
2021/09/13 06:13:33;;;;;;;10.10;5.53;;;;;;;15.38;94.95;102070.38;6183068;23;20015;-76
2021/09/13 06:15:58;;;;;;;14.77;5.50;;;;;;;15.51;93.91;102067.94;6180392;23;20016;-77
2021/09/13 06:18:24;;;;;;;13.35;5.55;;;;;;;15.67;93.71;102070.84;6179427;23;20012;-76
2021/09/13 06:20:49;;;;;;;9.50;4.43;;;;;;;15.79;91.67;102059.47;6185480;23;20409;-77
2021/09/13 06:23:15;;;;;;;6.88;3.97;;;;;;;15.98;91.19;102064.25;6182618;23;20092;-78
2021/09/13 06:25:40;;;;;;;12.55;3.63;;;;;;;16.13;88.84;102062.69;6184349;23;20001;-75
2021/09/13 06:28:06;;;;;;;6.85;3.38;;;;;;;16.34;88.80;102072.66;6184151;23;20004;-76
2021/09/13 06:30:31;;;;;;;9.68;2.83;;;;;;;16.46;86.92;102063.97;6184060;23;20441;-75
2021/09/13 06:32:57;;;;;;;8.00;2.92;;;;;;;16.59;85.67;102070.28;6183653;23;20001;-75
2021/09/13 06:35:22;;;;;;;11.57;3.38;;;;;;;16.68;85.21;102067.75;6182754;23;20013;-76
2021/09/13 06:37:48;;;;;;;4.88;2.72;;;;;;;16.66;84.36;102067.72;6182097;23;20016;-78
2021/09/13 06:40:13;;;;;;;7.32;2.78;;;;;;;16.67;83.68;102068.59;6184120;23;20028;-75
2021/09/13 06:42:39;;;;;;;12.75;3.03;;;;;;;16.63;84.20;102074.75;6181958;23;20001;-76
2021/09/13 06:45:20;;;;;;;10.13;3.08;;;;;;;16.60;84.93;102082.72;6182956;23;20005;-76
2021/09/13 06:47:45;;;;;;;8.27;3.20;;;;;;;16.61;84.64;102087.16;6176278;23;20005;-75
2021/09/13 06:50:26;;;;;;;14.48;3.80;;;;;;;16.65;84.37;102086.31;6183484;23;20327;-75
2021/09/13 06:52:54;;;;;;;7.80;3.45;;;;;;;16.63;85.02;102080.06;6179911;23;20040;-75
2021/09/13 06:55:19;;;;;;;7.22;3.42;;;;;;;16.51;84.62;102081.72;6179230;23;20005;-75
2021/09/13 06:57:45;;;;;;;8.75;3.65;;;;;;;16.49;84.88;102080.84;6180742;23;20062;-76
2021/09/13 07:00:13;;;;;;;13.77;4.32;;;;;;;16.49;85.41;102082.59;6176967;23;20079;-77
2021/09/13 07:02:41;;;;;;;6.10;3.70;;;;;;;16.63;84.97;102082.72;6182053;23;20055;-74
2021/09/13 07:05:08;;;;;;;16.52;4.25;;;;;;;16.62;84.95;102088.94;6181240;23;20009;-75
2021/09/13 07:07:35;;;;;;;10.05;3.63;;;;;;;16.69;84.51;102083.69;6181129;23;20001;-75
2021/09/13 07:10:02;;;;;;;9.45;3.42;;;;;;;16.80;83.60;102089.13;6181812;23;20009;-76
2021/09/13 07:12:28;;;;;;;8.65;3.13;;;;;;;16.84;83.30;102093.59;6180696;23;20416;-77
2021/09/13 07:14:53;;;;;;;6.47;3.20;;;;;;;16.92;82.99;102095.50;6182333;23;20019;-76
2021/09/13 07:17:18;;;;;;;7.13;3.53;;;;;;;16.99;82.44;102089.38;6180377;23;20109;-76
2021/09/13 07:19:45;;;;;;;10.07;2.72;;;;;;;17.13;82.02;102085.09;6180513;23;20306;-77
2021/09/13 07:22:11;;;;;;;8.43;2.33;;;;;;;17.29;80.02;102082.53;6180336;23;20376;-76
2021/09/13 07:24:36;;;;;;;5.15;2.95;;;;;;;17.41;80.11;102087.97;6179768;23;20092;-76
2021/09/13 07:27:02;;;;;;;5.88;2.83;;;;;;;17.37;80.66;102094.13;6180004;23;20005;-75
2021/09/13 07:29:28;;;;;;;5.22;2.30;;;;;;;17.51;79.35;102091.59;6182110;23;20329;-76
2021/09/13 07:31:53;;;;;;;7.65;2.42;;;;;;;17.57;79.02;102101.41;6180830;23;20009;-76
2021/09/13 07:34:19;;;;;;;12.77;2.47;;;;;;;17.63;80.98;102112.97;6181721;23;20008;-76
2021/09/13 07:36:44;;;;;;;10.10;2.17;;;;;;;17.66;79.33;102106.78;6181657;23;20008;-74
2021/09/13 07:39:09;;;;;;;5.18;2.08;;;;;;;17.64;79.60;102108.56;6154263;23;20017;-75
2021/09/13 07:41:35;;;;;;;4.22;2.08;;;;;;;17.59;78.44;102110.28;6180361;23;20001;-75
2021/09/13 07:44:00;;;;;;;4.93;2.33;;;;;;;17.48;78.38;102107.53;6167862;23;20099;-76
2021/09/13 07:46:26;;;;;;;8.50;2.03;;;;;;;17.57;78.22;102114.72;6173228;23;20076;-76
2021/09/13 07:48:52;;;;;;;6.28;1.70;;;;;;;17.63;77.72;102102.31;6179087;23;20343;-76
2021/09/13 07:51:17;;;;;;;3.60;1.40;;;;;;;17.60;78.66;102114.75;6180054;23;20005;-76
2021/09/13 07:53:42;;;;;;;4.10;1.35;;;;;;;17.61;77.84;102113.88;6179573;23;20009;-76
2021/09/13 07:56:08;;;;;;;7.63;1.50;;;;;;;17.60;78.39;102112.06;6153990;23;20013;-76
2021/09/13 07:58:33;;;;;;;2.53;1.60;;;;;;;17.61;77.70;102108.53;6180901;23;20005;-75
2021/09/13 08:00:59;;;;;;;4.03;1.65;;;;;;;17.68;77.44;102105.03;6175797;23;20469;-76
2021/09/13 08:03:24;;;;;;;5.40;2.00;;;;;;;17.73;77.32;102113.03;6179709;23;20412;-77
2021/09/13 08:05:49;;;;;;;6.18;2.15;;;;;;;17.77;77.19;102110.44;6180674;23;20545;-76
2021/09/13 08:08:15;;;;;;;5.60;1.52;;;;;;;17.97;77.26;102118.59;6179448;23;20005;-75
2021/09/13 08:10:41;;;;;;;2.33;1.35;;;;;;;18.11;78.34;102118.66;6180017;23;20011;-76
2021/09/13 08:13:06;;;;;;;4.70;1.88;;;;;;;18.11;75.77;102110.66;6180498;23;20048;-75
2021/09/13 08:15:32;;;;;;;5.50;1.75;;;;;;;18.42;76.48;102121.50;6176288;23;20012;-77
2021/09/13 08:17:58;;;;;;;8.05;1.73;;;;;;;18.67;75.52;102105.59;6179629;23;20005;-75
2021/09/13 08:20:23;;;;;;;5.60;1.85;;;;;;;18.71;74.06;102105.59;6180163;23;20012;-76
2021/09/13 08:22:48;;;;;;;3.50;1.40;;;;;;;18.79;72.27;102105.63;6153815;23;20088;-77
2021/09/13 08:25:14;;;;;;;4.80;1.35;;;;;;;19.03;72.26;102114.56;6181180;23;20012;-77
2021/09/13 08:27:39;;;;;;;5.50;1.20;;;;;;;19.16;71.75;102107.50;6177575;23;20005;-77
2021/09/13 08:30:06;;;;;;;2.40;1.30;;;;;;;19.29;72.42;102113.72;6179651;23;20005;-76
2021/09/13 08:32:32;;;;;;;3.42;1.67;;;;;;;19.40;71.10;102111.06;6178544;23;20084;-75
2021/09/13 08:34:57;;;;;;;5.55;2.00;;;;;;;19.35;71.16;102116.41;6179478;23;20029;-77
2021/09/13 08:37:23;;;;;;;6.38;1.80;;;;;;;19.38;71.55;102116.41;6180370;23;20009;-75
2021/09/13 08:39:48;;;;;;;5.32;1.90;;;;;;;19.50;70.63;102120.84;6179133;23;20009;-75
2021/09/13 08:42:15;;;;;;;4.47;1.63;;;;;;;19.60;68.72;102117.31;6179609;23;20016;-75
2021/09/13 08:44:41;;;;;;;4.80;1.88;;;;;;;19.42;69.75;102120.84;6179821;23;20445;-75
2021/09/13 08:47:18;;;;;;;4.70;1.75;;;;;;;19.47;69.79;102132.41;6180857;23;20005;-75
2021/09/13 08:49:45;;;;;;;6.85;1.30;;;;;;;19.74;70.58;102135.97;6155172;23;20444;-75
2021/09/13 08:52:10;;;;;;;2.80;1.52;;;;;;;19.83;68.28;102128.00;6154324;23;20420;-75
2021/09/13 08:54:38;;;;;;;3.08;1.38;;;;;;;19.95;67.73;102120.84;6180450;23;20013;-77
2021/09/13 08:57:05;;;;;;;3.25;1.55;;;;;;;20.01;67.43;102124.38;6179966;23;20005;-75
2021/09/13 08:59:36;;;;;;;5.95;1.40;;;;;;;20.40;67.19;102121.56;6179538;23;20009;-76
2021/09/13 09:02:02;;;;;;;2.78;1.45;;;;;;;20.16;66.06;102118.13;6175715;23;20015;-76
2021/09/13 09:04:30;;;;;;;3.72;1.42;;;;;;;20.28;66.46;102121.63;6178361;23;20088;-76
2021/09/13 09:07:06;;;;;;;1.90;1.02;;;;;;;20.16;64.80;102111.88;6182309;23;20459;-76
2021/09/13 09:09:32;;;;;;;2.05;1.23;;;;;;;20.09;65.39;102110.09;6181321;23;20444;-74
2021/09/13 09:12:04;;;;;;;6.07;1.73;;;;;;;20.24;65.44;102119.84;6182399;23;20004;-74
2021/09/13 09:14:38;;;;;;;4.35;2.10;;;;;;;20.04;66.27;102128.84;6181722;23;20009;-75
2021/09/13 09:17:19;;;;;;;4.70;1.90;;;;;;;20.27;68.75;102138.59;6182757;23;20013;-76
2021/09/13 09:19:44;;;;;;;4.25;1.73;;;;;;;20.42;66.17;102133.16;6180503;23;20473;-75
2021/09/13 09:22:19;;;;;;;5.07;1.88;;;;;;;20.53;63.69;102112.63;6181047;23;20440;-76
2021/09/13 09:24:45;;;;;;;5.00;1.20;;;;;;;20.98;63.08;102119.56;6182165;23;20021;-75
2021/09/13 09:27:11;;;;;;;1.65;0.77;;;;;;;21.11;63.27;102126.59;6183619;23;20059;-75
2021/09/13 09:29:36;;;;;;;2.58;0.90;;;;;;;21.24;61.18;102122.03;6183057;23;20013;-76
2021/09/13 09:32:02;;;;;;;1.08;0.60;;;;;;;21.08;58.59;102109.66;6182529;23;20005;-75
2021/09/13 09:34:33;;;;;;;3.25;0.55;;;;;;;21.47;58.28;102105.78;6184392;23;20001;-78
2021/09/13 09:37:03;;;;;;;2.15;0.95;;;;;;;21.12;61.28;102117.69;6184128;23;20008;-76
2021/09/13 09:39:29;;;;;;;3.05;0.90;;;;;;;21.31;60.84;102121.09;6184749;23;20120;-77
2021/09/13 09:41:56;;;;;;;6.22;1.02;;;;;;;20.95;61.70;102122.25;6184377;23;20076;-76
2021/09/13 09:44:23;;;;;;;4.75;0.82;;;;;;;20.59;60.70;102116.16;6184465;23;20005;-75
2021/09/13 09:46:50;;;;;;;2.95;0.90;;;;;;;20.56;61.48;102117.06;6182462;23;20009;-75
2021/09/13 09:49:18;;;;;;;2.53;0.95;;;;;;;21.14;61.19;102118.53;6183791;23;20444;-74
2021/09/13 09:51:49;;;;;;;3.05;0.90;;;;;;;21.72;58.42;102097.56;6183871;23;20660;-76
2021/09/13 09:54:20;;;;;;;4.35;0.98;;;;;;;22.30;55.52;102089.75;6182303;23;20001;-76
2021/09/13 09:56:48;;;;;;;2.97;0.80;;;;;;;22.10;54.70;102088.22;6184380;23;20005;-76
2021/09/13 09:59:17;;;;;;;1.40;0.68;;;;;;;21.81;55.73;102091.22;6183073;23;20009;-76
2021/09/13 10:01:44;;;;;;;3.15;0.70;;;;;;;21.58;57.64;102099.47;6178351;23;20059;-75
2021/09/13 10:04:13;;;;;;;1.02;0.65;;;;;;;21.16;58.23;102094.44;6183850;23;20013;-74
2021/09/13 10:06:42;;;;;;;4.10;1.48;;;;;;;21.49;58.16;102104.00;6184342;23;20005;-76
2021/09/13 10:09:09;;;;;;;4.03;1.20;;;;;;;21.40;58.49;102096.03;6183063;23;20005;-77
2021/09/13 10:11:36;;;;;;;2.05;1.17;;;;;;;22.17;56.64;102095.28;6184780;23;20005;-74
2021/09/13 10:14:02;;;;;;;3.90;0.90;;;;;;;22.39;54.66;102087.00;6184221;23;19997;-76
2021/09/13 10:16:28;;;;;;;1.38;0.80;;;;;;;22.88;54.61;102088.09;6183623;23;20058;-75
2021/09/13 10:18:54;;;;;;;5.70;1.25;;;;;;;23.13;52.73;102083.28;6183535;23;20001;-76
2021/09/13 10:21:19;;;;;;;2.13;0.73;;;;;;;23.88;51.40;102073.00;6182949;23;20009;-76
2021/09/13 10:23:45;;;;;;;4.32;1.08;;;;;;;23.94;51.40;102079.19;6182892;23;20318;-76
2021/09/13 10:26:12;;;;;;;2.80;0.90;;;;;;;24.62;50.71;102080.50;6182999;23;20008;-76
2021/09/13 10:29:02;;;;;;;2.65;0.80;;;;;;;24.93;48.97;102077.97;6183911;23;20001;-76
2021/09/13 10:31:42;;;;;;;3.33;0.95;;;;;;;25.18;47.29;102077.38;6184098;23;20005;-76
2021/09/13 10:34:22;;;;;;;4.78;1.08;;;;;;;25.49;47.51;102068.50;6184415;23;20029;-75
2021/09/13 10:37:06;;;;;;;1.65;0.80;;;;;;;25.25;47.85;102071.78;6184487;23;20004;-76
2021/09/13 10:39:52;;;;;;;1.35;0.60;;;;;;;24.99;50.00;102079.66;6183089;23;20017;-74
2021/09/13 10:42:48;;;;;;;3.85;0.90;;;;;;;25.13;48.92;102076.59;6183113;23;20008;-75
2021/09/13 10:45:15;;;;;;;2.92;0.90;;;;;;;25.63;46.73;102070.88;6182043;23;20085;-76
2021/09/13 10:47:50;;;;;;;4.25;1.35;;;;;;;25.58;49.66;102071.88;6183379;23;20005;-76
2021/09/13 10:50:35;;;;;;;2.47;0.60;;;;;;;24.90;46.04;102053.81;6183273;23;20017;-74
2021/09/13 10:53:24;;;;;;;1.73;0.57;;;;;;;25.08;48.90;102063.22;6162594;23;20005;-74
2021/09/13 10:55:52;;;;;;;2.17;0.80;;;;;;;25.29;46.63;102055.56;6157792;23;20433;-74
2021/09/13 10:58:34;;;;;;;3.83;1.20;;;;;;;25.54;44.53;102040.53;6181637;23;20009;-76
2021/09/13 11:01:03;;;;;;;2.60;0.82;;;;;;;25.76;44.69;102039.94;6178236;23;20009;-76
2021/09/13 11:03:30;;;;;;;2.60;0.90;;;;;;;25.23;45.06;102035.94;6183034;23;20009;-74
2021/09/13 11:08:59;;;;;;;3.80;0.60;;;;;;;23.90;48.47;102043.41;6182750;23;20035;-74
2021/09/13 11:11:25;;;;;;;2.75;1.00;;;;;;;23.66;49.83;102044.78;6183132;23;20306;-73
2021/09/13 11:14:00;;;;;;;1.85;0.77;;;;;;;23.21;49.74;102041.09;6182817;23;20005;-75
2021/09/13 11:16:27;;;;;;;1.65;0.80;;;;;;;23.38;51.29;102046.13;6183124;23;20092;-76
2021/09/13 11:18:56;;;;;;;1.92;1.08;;;;;;;23.35;51.18;102050.69;6182744;23;20012;-75
2021/09/13 11:21:32;;;;;;;6.55;1.38;;;;;;;23.71;51.63;102045.53;6182558;23;20005;-75
2021/09/13 11:24:00;;;;;;;8.00;1.50;;;;;;;22.88;56.02;102062.19;6181241;23;20009;-74
2021/09/13 11:26:32;;;;;;;4.80;1.35;;;;;;;23.50;53.15;102052.22;6181445;23;20008;-76